Time;durP1;ratioP1;P1;durP2;ratioP2;P2;SDS_P1;SDS_P2;PMS_P1;PMS_P2;Temp;Humidity;BMP_temperature;BMP_pressure;BME280_temperature;BME280_humidity;BME280_pressure;Samples;Min_cycle;Max_cycle;Signal;HPM_P1;HPM_P2
2022/10/18 00:00:09;;;;;;;7.37;1.47;;;18.90;72.30;;;;;;5053040;28;20207;-69
2022/10/18 00:02:37;;;;;;;6.33;1.60;;;18.80;72.20;;;;;;5053005;28;20700;-69
2022/10/18 00:05:05;;;;;;;10.27;1.80;;;18.80;72.50;;;;;;5052606;28;20226;-68
2022/10/18 00:07:32;;;;;;;8.43;1.87;;;18.80;72.40;;;;;;5062367;28;20254;-68
2022/10/18 00:10:00;;;;;;;6.10;2.00;;;18.80;72.50;;;;;;5048542;28;20187;-71
2022/10/18 00:12:27;;;;;;;8.20;2.10;;;18.80;72.30;;;;;;5055932;28;20180;-70
2022/10/18 00:14:54;;;;;;;6.40;1.67;;;19.10;72.30;;;;;;5055742;28;20636;-71
2022/10/18 00:17:22;;;;;;;7.93;1.40;;;19.10;71.10;;;;;;5053533;28;20241;-67
2022/10/18 00:19:49;;;;;;;8.00;2.20;;;19.10;71.70;;;;;;5052926;28;20516;-67
2022/10/18 00:22:17;;;;;;;8.13;1.77;;;19.10;71.50;;;;;;5053140;28;20664;-71
2022/10/18 00:24:44;;;;;;;8.27;1.90;;;19.20;70.50;;;;;;5054376;28;20227;-70
2022/10/18 00:27:12;;;;;;;5.07;1.37;;;19.30;71.40;;;;;;5051489;28;20700;-70
2022/10/18 00:29:39;;;;;;;8.67;1.40;;;19.40;71.80;;;;;;5051065;28;20179;-68
2022/10/18 00:32:07;;;;;;;6.73;1.87;;;19.70;70.10;;;;;;5053752;28;20172;-71
2022/10/18 00:34:34;;;;;;;8.37;1.60;;;20.20;69.30;;;;;;5056749;28;20179;-68
2022/10/18 00:37:01;;;;;;;5.53;1.50;;;20.50;67.50;;;;;;5051633;28;20509;-71
2022/10/18 00:39:29;;;;;;;5.33;1.50;;;20.70;67.30;;;;;;5051638;28;20592;-68
2022/10/18 00:41:56;;;;;;;4.70;1.30;;;20.80;66.00;;;;;;5051892;28;20263;-69
2022/10/18 00:44:26;;;;;;;8.10;2.30;;;21.00;65.50;;;;;;5051761;28;20226;-73
2022/10/18 00:47:01;;;;;;;6.37;1.70;;;21.30;64.60;;;;;;5050549;28;20223;-71
2022/10/18 00:49:56;;;;;;;7.57;1.73;;;21.20;65.50;;;;;;5047947;28;20506;-69
2022/10/18 00:52:34;;;;;;;9.97;1.70;;;21.00;66.60;;;;;;5054656;28;20231;-68
2022/10/18 00:55:02;;;;;;;8.50;1.53;;;20.70;67.80;;;;;;5048458;28;20188;-68
2022/10/18 00:57:30;;;;;;;5.80;1.50;;;20.70;68.20;;;;;;5055496;28;20188;-70
2022/10/18 00:59:58;;;;;;;6.27;1.63;;;20.60;69.50;;;;;;5049131;28;20199;-73
2022/10/18 01:02:26;;;;;;;4.80;1.30;;;20.50;70.80;;;;;;5052304;28;20168;-69
2022/10/18 01:04:53;;;;;;;5.97;1.87;;;20.30;71.20;;;;;;5050600;28;20576;-69
2022/10/18 01:08:05;;;;;;;9.17;1.47;;;20.50;70.70;;;;;;5051443;28;20169;-70
2022/10/18 01:11:03;;;;;;;5.57;1.40;;;20.30;70.30;;;;;;5063185;28;20276;-69
2022/10/18 01:14:03;;;;;;;6.60;1.40;;;20.80;69.00;;;;;;5051086;28;20226;-73
2022/10/18 01:17:02;;;;;;;5.57;1.70;;;21.40;66.30;;;;;;5050137;28;20209;-74
2022/10/18 01:20:03;;;;;;;8.03;1.43;;;21.50;64.10;;;;;;5037992;28;20757;-70
2022/10/18 01:23:07;;;;;;;4.83;1.20;;;21.40;64.80;;;;;;5046923;28;20187;-72
2022/10/18 01:25:49;;;;;;;4.67;1.40;;;21.60;64.20;;;;;;5051067;28;20192;-71
2022/10/18 01:28:27;;;;;;;5.57;1.50;;;21.20;65.20;;;;;;5055502;28;20664;-69
2022/10/18 01:31:08;;;;;;;4.77;1.60;;;21.30;64.20;;;;;;5057729;28;20717;-71
2022/10/18 01:33:49;;;;;;;3.50;1.10;;;21.30;63.90;;;;;;5057255;28;20179;-70
2022/10/18 01:36:25;;;;;;;9.57;1.37;;;21.40;64.70;;;;;;5052099;28;20187;-72
2022/10/18 01:38:55;;;;;;;5.33;1.10;;;21.40;64.50;;;;;;5048662;28;21533;-69
2022/10/18 01:41:24;;;;;;;4.63;1.20;;;21.30;64.50;;;;;;5055258;28;20188;-68
2022/10/18 01:44:01;;;;;;;7.30;2.30;;;21.00;65.10;;;;;;5049685;28;20736;-69
2022/10/18 01:46:29;;;;;;;6.03;1.43;;;20.90;65.20;;;;;;5048977;28;20293;-68
2022/10/18 01:48:57;;;;;;;3.27;1.20;;;21.30;65.80;;;;;;5053664;28;20188;-72
2022/10/18 01:51:30;;;;;;;4.00;1.13;;;21.30;64.90;;;;;;5042606;28;20196;-71
2022/10/18 01:53:58;;;;;;;6.80;1.20;;;21.40;65.40;;;;;;5053804;28;20190;-73
2022/10/18 01:56:37;;;;;;;3.77;1.37;;;21.10;65.30;;;;;;5054279;28;20191;-70
2022/10/18 01:59:41;;;;;;;5.37;1.70;;;21.10;65.20;;;;;;5052819;28;20685;-74
2022/10/18 02:02:46;;;;;;;2.87;1.27;;;21.00;65.60;;;;;;5053008;28;20172;-72
2022/10/18 02:05:19;;;;;;;5.93;1.80;;;20.80;66.10;;;;;;5013603;28;20221;-73
2022/10/18 02:08:04;;;;;;;7.53;1.53;;;20.80;67.00;;;;;;5048054;28;20191;-73
2022/10/18 02:10:45;;;;;;;4.03;1.20;;;20.50;66.90;;;;;;5051146;28;20178;-72
2022/10/18 02:13:17;;;;;;;4.80;1.60;;;20.50;68.00;;;;;;5058022;28;20183;-71
2022/10/18 02:15:49;;;;;;;12.70;1.93;;;20.50;68.20;;;;;;5053658;28;20180;-71
2022/10/18 02:18:26;;;;;;;6.47;1.60;;;20.30;68.60;;;;;;5049225;28;20176;-72
2022/10/18 02:20:55;;;;;;;7.90;1.67;;;20.20;69.30;;;;;;5053493;28;20241;-68
2022/10/18 02:23:25;;;;;;;11.37;2.10;;;19.60;71.40;;;;;;5052426;28;20210;-68
2022/10/18 02:25:53;;;;;;;8.70;1.80;;;19.50;72.20;;;;;;5052696;28;20317;-72
2022/10/18 02:28:21;;;;;;;5.53;2.27;;;19.50;72.90;;;;;;5053692;28;20176;-73
2022/10/18 02:31:29;;;;;;;14.07;5.50;;;19.30;73.00;;;;;;5054393;28;20184;-72
2022/10/18 02:34:15;;;;;;;7.70;1.70;;;19.20;73.70;;;;;;5046962;28;20187;-72
2022/10/18 02:37:10;;;;;;;6.10;1.70;;;19.20;74.40;;;;;;5053337;28;20222;-69
2022/10/18 02:39:44;;;;;;;11.53;2.40;;;19.30;74.70;;;;;;5056235;28;20215;-71
2022/10/18 02:42:13;;;;;;;10.97;1.87;;;19.50;74.20;;;;;;5053168;28;20187;-72
2022/10/18 02:44:40;;;;;;;10.13;2.27;;;19.80;73.60;;;;;;5056236;28;20484;-67
2022/10/18 02:47:10;;;;;;;6.63;1.97;;;19.70;73.00;;;;;;5053065;28;20227;-69
2022/10/18 02:49:37;;;;;;;6.00;2.43;;;19.90;72.70;;;;;;5054053;28;20193;-70
2022/10/18 02:52:05;;;;;;;7.13;2.40;;;20.00;72.30;;;;;;5053952;28;20172;-69
2022/10/18 02:54:32;;;;;;;8.70;3.60;;;20.30;71.40;;;;;;5054326;28;20184;-70
2022/10/18 02:56:59;;;;;;;6.10;1.70;;;20.30;71.50;;;;;;5058180;28;20309;-68
2022/10/18 02:59:27;;;;;;;11.03;1.87;;;20.10;72.00;;;;;;5050332;28;20653;-68
2022/10/18 03:01:54;;;;;;;9.60;1.93;;;20.00;72.50;;;;;;5054779;28;20238;-68
2022/10/18 03:04:21;;;;;;;6.97;1.63;;;20.00;72.60;;;;;;5057113;28;20229;-69
2022/10/18 03:06:49;;;;;;;9.07;1.43;;;19.90;72.90;;;;;;5053512;28;20190;-68
2022/10/18 03:09:16;;;;;;;8.53;1.90;;;19.90;73.30;;;;;;5055862;28;20179;-66
2022/10/18 03:11:43;;;;;;;4.93;1.50;;;19.70;73.50;;;;;;5053332;28;20247;-68
2022/10/18 03:14:11;;;;;;;7.93;1.50;;;19.70;74.00;;;;;;5072318;28;20266;-68
2022/10/18 03:16:38;;;;;;;7.43;1.83;;;19.60;74.40;;;;;;5056779;28;20189;-70
2022/10/18 03:19:05;;;;;;;8.80;2.07;;;19.70;74.00;;;;;;5052146;28;20180;-69
2022/10/18 03:21:33;;;;;;;5.50;2.00;;;19.80;73.90;;;;;;5052240;28;20533;-68
2022/10/18 03:24:01;;;;;;;7.90;1.90;;;19.80;73.90;;;;;;5051937;28;20204;-69
2022/10/18 03:26:28;;;;;;;7.03;1.60;;;19.80;74.00;;;;;;5053261;28;20191;-68
2022/10/18 03:28:56;;;;;;;7.17;1.80;;;19.80;74.50;;;;;;5053691;28;20182;-68
2022/10/18 03:31:23;;;;;;;15.90;2.03;;;19.60;74.70;;;;;;5053211;28;20179;-69
2022/10/18 03:33:50;;;;;;;8.03;1.87;;;19.60;75.50;;;;;;5053379;28;20576;-69
2022/10/18 03:36:18;;;;;;;10.77;1.87;;;19.50;75.60;;;;;;5053297;28;20176;-71
2022/10/18 03:38:45;;;;;;;8.93;1.97;;;19.50;75.80;;;;;;5052918;28;20264;-69
2022/10/18 03:41:12;;;;;;;7.77;1.60;;;19.30;75.80;;;;;;5053192;28;20255;-71
2022/10/18 03:43:39;;;;;;;12.20;2.03;;;19.30;76.00;;;;;;5053226;28;20616;-68
2022/10/18 03:46:07;;;;;;;12.00;1.80;;;19.20;76.40;;;;;;5053108;28;20315;-69
2022/10/18 03:48:34;;;;;;;10.50;2.00;;;19.20;76.60;;;;;;5052522;28;20718;-69
2022/10/18 03:51:02;;;;;;;6.47;1.50;;;19.10;76.50;;;;;;5052939;28;20184;-69
2022/10/18 03:53:29;;;;;;;10.00;2.43;;;19.10;77.00;;;;;;5052927;28;20221;-69
2022/10/18 03:55:56;;;;;;;9.20;2.00;;;19.20;77.90;;;;;;5052317;28;20187;-69
2022/10/18 03:58:24;;;;;;;9.97;2.03;;;19.10;79.20;;;;;;5052490;28;20545;-71
2022/10/18 04:00:52;;;;;;;5.93;1.43;;;19.00;81.10;;;;;;5051927;28;20186;-72
2022/10/18 04:03:21;;;;;;;7.57;1.90;;;19.00;80.70;;;;;;5043410;28;20177;-69
2022/10/18 04:05:50;;;;;;;7.30;1.70;;;18.80;81.10;;;;;;5046075;28;20183;-70
2022/10/18 04:08:18;;;;;;;8.13;1.80;;;18.80;80.60;;;;;;5051008;28;20196;-69
2022/10/18 04:10:45;;;;;;;12.57;2.00;;;18.80;80.30;;;;;;5052206;28;20175;-68
2022/10/18 04:13:13;;;;;;;8.70;1.73;;;18.90;80.60;;;;;;5052704;28;20638;-68
2022/10/18 04:15:40;;;;;;;8.43;1.80;;;19.00;80.10;;;;;;5052855;28;20646;-69
2022/10/18 04:18:07;;;;;;;12.67;2.20;;;19.00;80.50;;;;;;5052545;28;20176;-68
2022/10/18 04:20:35;;;;;;;6.37;1.87;;;19.10;79.70;;;;;;5052410;28;20681;-68
2022/10/18 04:23:02;;;;;;;10.47;1.90;;;19.10;79.30;;;;;;5052519;28;20647;-69
2022/10/18 04:25:29;;;;;;;11.00;1.83;;;19.20;78.50;;;;;;5052138;28;20207;-68
2022/10/18 04:27:57;;;;;;;8.10;2.17;;;19.20;78.30;;;;;;5048249;28;20215;-69
2022/10/18 04:30:24;;;;;;;7.87;2.00;;;19.10;78.10;;;;;;5051716;28;20187;-68
2022/10/18 04:32:51;;;;;;;9.77;1.77;;;19.10;78.30;;;;;;5051998;28;20188;-70
2022/10/18 04:35:23;;;;;;;8.37;1.90;;;19.10;77.90;;;;;;5056699;28;20180;-69
2022/10/18 04:37:50;;;;;;;10.00;2.00;;;19.20;78.10;;;;;;5049393;28;20206;-68
2022/10/18 04:40:18;;;;;;;6.27;1.50;;;19.30;77.90;;;;;;5052137;28;20579;-71
2022/10/18 04:42:46;;;;;;;9.50;1.87;;;19.30;77.50;;;;;;5052681;28;20290;-69
2022/10/18 04:45:13;;;;;;;8.53;1.60;;;19.30;77.80;;;;;;5034143;28;20273;-69
2022/10/18 04:47:41;;;;;;;9.97;1.73;;;19.20;77.90;;;;;;5042144;28;20314;-70
2022/10/18 04:50:08;;;;;;;8.20;1.70;;;19.20;78.00;;;;;;5042796;28;20189;-69
2022/10/18 04:52:36;;;;;;;9.17;1.90;;;19.10;78.30;;;;;;5046770;28;20176;-70
2022/10/18 04:55:03;;;;;;;11.00;1.90;;;19.10;79.10;;;;;;5050441;28;20183;-70
2022/10/18 04:57:31;;;;;;;15.77;2.10;;;19.10;79.10;;;;;;5051046;28;20176;-69
2022/10/18 04:59:58;;;;;;;8.53;1.80;;;19.10;79.10;;;;;;5048193;28;20190;-68
2022/10/18 05:02:25;;;;;;;10.87;2.47;;;19.00;79.40;;;;;;5045007;28;20698;-68
2022/10/18 05:04:53;;;;;;;11.33;2.23;;;19.00;79.60;;;;;;5046939;28;20272;-68
2022/10/18 05:07:20;;;;;;;10.03;1.70;;;19.10;80.00;;;;;;5047909;28;20287;-69
2022/10/18 05:09:47;;;;;;;8.00;2.03;;;19.10;81.20;;;;;;5041122;28;20184;-69
2022/10/18 05:12:15;;;;;;;9.73;2.27;;;19.10;81.90;;;;;;5043285;28;20530;-70
2022/10/18 05:14:42;;;;;;;11.70;2.70;;;19.10;82.10;;;;;;5046908;28;20190;-69
2022/10/18 05:17:09;;;;;;;8.93;1.70;;;19.00;81.50;;;;;;5043920;28;20187;-71
2022/10/18 05:19:36;;;;;;;6.63;1.77;;;18.90;81.70;;;;;;5049135;28;20197;-70
2022/10/18 05:22:04;;;;;;;7.97;1.93;;;19.00;81.70;;;;;;5048009;28;20184;-69
2022/10/18 05:24:31;;;;;;;9.77;1.90;;;19.00;81.20;;;;;;5047158;28;20212;-70
2022/10/18 05:26:59;;;;;;;13.67;2.33;;;18.90;81.80;;;;;;5046329;28;20199;-69
2022/10/18 05:29:27;;;;;;;9.73;2.17;;;18.90;82.80;;;;;;5049396;28;20183;-72
2022/10/18 05:31:54;;;;;;;8.17;2.70;;;18.80;84.00;;;;;;5043727;28;20251;-69
2022/10/18 05:34:23;;;;;;;11.53;2.20;;;18.70;84.60;;;;;;5041205;28;20687;-68
2022/10/18 05:36:50;;;;;;;7.60;1.90;;;18.70;85.60;;;;;;5043866;28;20180;-68
2022/10/18 05:39:18;;;;;;;11.70;2.17;;;18.70;86.20;;;;;;5045327;28;20187;-68
2022/10/18 05:41:45;;;;;;;10.43;2.17;;;18.70;86.40;;;;;;5046028;28;20188;-68
2022/10/18 05:44:13;;;;;;;11.00;2.27;;;18.60;86.70;;;;;;5052663;28;20685;-68
2022/10/18 05:46:40;;;;;;;7.77;1.90;;;18.70;86.80;;;;;;5047201;28;20281;-68
2022/10/18 05:49:10;;;;;;;6.90;2.37;;;18.70;86.80;;;;;;5046924;28;20184;-70
2022/10/18 05:51:38;;;;;;;7.70;2.13;;;18.70;86.60;;;;;;5048168;28;20180;-71
2022/10/18 05:54:05;;;;;;;10.00;2.40;;;18.70;86.60;;;;;;5041893;28;20176;-68
2022/10/18 05:56:34;;;;;;;11.40;2.40;;;18.70;86.40;;;;;;5040377;28;20199;-71
2022/10/18 05:59:03;;;;;;;12.23;3.30;;;18.70;86.20;;;;;;5052060;28;20195;-73
2022/10/18 06:01:31;;;;;;;9.47;2.13;;;18.70;86.30;;;;;;5045525;28;20286;-73
2022/10/18 06:03:58;;;;;;;6.77;1.77;;;18.70;86.00;;;;;;5044425;28;20282;-72
2022/10/18 06:06:26;;;;;;;10.93;2.20;;;18.70;86.20;;;;;;5042660;28;20258;-72
2022/10/18 06:08:53;;;;;;;11.13;2.53;;;18.70;86.40;;;;;;5043839;28;20634;-68
2022/10/18 06:11:21;;;;;;;12.13;2.53;;;18.70;86.50;;;;;;5047934;28;20185;-69
2022/10/18 06:13:50;;;;;;;12.47;2.50;;;18.80;86.70;;;;;;5049370;28;20698;-71
2022/10/18 06:16:20;;;;;;;11.43;3.40;;;18.70;86.10;;;;;;5045301;28;20696;-70
2022/10/18 06:18:52;;;;;;;7.90;2.30;;;18.80;86.40;;;;;;5051449;28;20242;-71
2022/10/18 06:21:21;;;;;;;9.10;1.90;;;18.70;86.10;;;;;;5050204;28;20188;-71
2022/10/18 06:23:56;;;;;;;11.60;2.33;;;18.70;85.80;;;;;;5051468;28;20292;-72
2022/10/18 06:26:24;;;;;;;7.93;1.93;;;18.70;85.60;;;;;;5049971;28;20187;-69
2022/10/18 06:28:52;;;;;;;11.97;2.10;;;18.80;85.80;;;;;;5054359;28;20191;-70
2022/10/18 06:31:20;;;;;;;7.93;2.00;;;18.70;85.70;;;;;;5049808;28;20184;-68
2022/10/18 06:33:48;;;;;;;6.93;1.97;;;18.70;85.40;;;;;;5050658;28;20234;-68
2022/10/18 06:36:18;;;;;;;12.67;2.23;;;18.70;85.20;;;;;;5049794;28;20184;-68
2022/10/18 06:38:45;;;;;;;8.30;2.10;;;18.60;85.10;;;;;;5052898;28;20180;-67
2022/10/18 06:41:13;;;;;;;9.13;2.50;;;18.70;85.20;;;;;;5045691;28;20187;-68
2022/10/18 06:43:40;;;;;;;6.97;1.90;;;18.70;85.30;;;;;;5048416;28;20571;-67
2022/10/18 06:46:08;;;;;;;6.03;2.00;;;18.60;85.10;;;;;;5045720;28;20254;-68
2022/10/18 06:48:38;;;;;;;8.43;1.83;;;18.60;84.90;;;;;;5047345;28;20181;-69
2022/10/18 06:51:07;;;;;;;15.33;3.00;;;18.60;85.00;;;;;;5052854;28;20184;-71
2022/10/18 06:53:37;;;;;;;7.30;2.03;;;18.60;85.20;;;;;;5046281;28;20171;-72
2022/10/18 06:56:13;;;;;;;9.70;1.97;;;18.60;85.50;;;;;;5054481;28;20237;-68
2022/10/18 06:58:40;;;;;;;7.57;2.43;;;18.60;85.30;;;;;;5053395;28;20225;-68
2022/10/18 07:01:10;;;;;;;10.93;2.20;;;18.60;85.40;;;;;;5053739;28;20176;-75
2022/10/18 07:03:38;;;;;;;11.20;2.40;;;18.60;85.60;;;;;;5054131;28;20198;-68
2022/10/18 07:06:07;;;;;;;10.30;2.53;;;18.50;85.60;;;;;;5049026;28;20821;-69
2022/10/18 07:08:36;;;;;;;10.43;2.20;;;18.50;85.70;;;;;;5043054;28;20186;-70
2022/10/18 07:11:04;;;;;;;9.13;1.90;;;18.50;85.60;;;;;;5053579;28;20195;-70
2022/10/18 07:13:33;;;;;;;9.70;2.37;;;18.50;85.60;;;;;;5043019;28;20189;-68
2022/10/18 07:16:08;;;;;;;5.77;2.07;;;18.50;85.70;;;;;;5054001;28;20564;-69
2022/10/18 07:18:37;;;;;;;7.10;2.40;;;18.50;85.50;;;;;;5053625;28;20181;-67
2022/10/18 07:21:07;;;;;;;9.47;2.13;;;18.50;85.60;;;;;;5053691;28;20764;-68
2022/10/18 07:23:37;;;;;;;9.47;2.30;;;18.50;85.80;;;;;;5049562;28;20194;-70
2022/10/18 07:26:16;;;;;;;8.60;1.90;;;18.50;85.90;;;;;;5047888;28;20186;-67
2022/10/18 07:28:45;;;;;;;9.67;2.87;;;18.50;86.00;;;;;;5053437;28;20255;-71
2022/10/18 07:31:13;;;;;;;9.37;2.27;;;18.50;86.00;;;;;;5053453;28;20192;-70
2022/10/18 07:33:41;;;;;;;6.87;2.07;;;18.50;86.30;;;;;;5053753;28;20258;-71
2022/10/18 07:36:10;;;;;;;6.00;1.90;;;18.50;86.30;;;;;;5053525;28;20187;-69
2022/10/18 07:38:38;;;;;;;10.27;2.33;;;18.50;86.30;;;;;;5053295;28;20575;-70
2022/10/18 07:41:07;;;;;;;11.97;2.73;;;18.50;86.40;;;;;;5048391;28;20190;-69
2022/10/18 07:43:35;;;;;;;10.83;2.40;;;18.40;86.50;;;;;;5053139;28;20294;-68
2022/10/18 07:46:04;;;;;;;9.53;2.47;;;18.40;86.50;;;;;;5053306;28;20289;-72
2022/10/18 07:48:32;;;;;;;7.10;2.10;;;18.40;86.70;;;;;;5053443;28;20183;-69
2022/10/18 07:51:00;;;;;;;11.03;2.20;;;18.50;86.60;;;;;;5053091;28;20580;-70
2022/10/18 07:53:29;;;;;;;7.47;2.00;;;18.50;86.70;;;;;;5047561;28;20180;-70
2022/10/18 07:56:04;;;;;;;13.47;2.50;;;18.50;86.70;;;;;;5053414;28;20249;-71
2022/10/18 07:58:34;;;;;;;11.13;2.73;;;18.50;86.90;;;;;;5045140;28;20421;-69
2022/10/18 08:01:03;;;;;;;9.17;2.83;;;18.50;87.00;;;;;;5052875;28;20190;-69
2022/10/18 08:03:31;;;;;;;8.43;2.17;;;18.50;87.00;;;;;;5053281;28;20178;-70
2022/10/18 08:05:58;;;;;;;12.00;2.23;;;18.40;87.00;;;;;;5052772;28;20238;-72
2022/10/18 08:08:26;;;;;;;11.13;2.63;;;18.40;87.10;;;;;;5043712;28;20175;-68
2022/10/18 08:10:54;;;;;;;12.63;2.53;;;18.40;87.20;;;;;;5051190;28;20565;-70
2022/10/18 08:13:21;;;;;;;9.33;2.37;;;18.40;87.40;;;;;;5051459;28;20176;-70
2022/10/18 08:15:49;;;;;;;12.00;2.77;;;18.30;87.40;;;;;;5050966;28;20198;-69
2022/10/18 08:18:16;;;;;;;6.93;2.40;;;18.30;87.50;;;;;;5051385;28;20555;-70
2022/10/18 08:20:44;;;;;;;10.20;2.53;;;18.30;87.70;;;;;;5052414;28;20195;-69
2022/10/18 08:23:12;;;;;;;9.27;2.50;;;18.30;87.70;;;;;;5052151;28;20190;-69
2022/10/18 08:25:39;;;;;;;9.90;2.80;;;18.30;87.70;;;;;;5057658;28;20211;-70
2022/10/18 08:28:07;;;;;;;8.33;2.83;;;18.30;87.80;;;;;;5053978;28;20186;-69
2022/10/18 08:30:35;;;;;;;10.83;2.50;;;18.30;88.10;;;;;;5050031;28;20207;-69
2022/10/18 08:33:03;;;;;;;11.37;2.40;;;18.20;88.10;;;;;;5052454;28;20175;-69
2022/10/18 08:35:31;;;;;;;6.60;2.33;;;18.20;88.10;;;;;;5052012;28;20176;-68
2022/10/18 08:37:58;;;;;;;9.03;2.87;;;18.20;88.10;;;;;;5051951;28;20195;-68
2022/10/18 08:40:26;;;;;;;14.13;2.57;;;18.20;88.30;;;;;;5052506;28;20168;-69
2022/10/18 08:42:56;;;;;;;12.10;2.73;;;18.20;88.30;;;;;;5051517;28;20200;-68
2022/10/18 08:45:25;;;;;;;11.70;2.37;;;18.20;88.30;;;;;;5051788;28;20360;-69
2022/10/18 08:47:56;;;;;;;13.17;2.97;;;18.20;88.30;;;;;;5052619;28;20187;-68
2022/10/18 08:50:33;;;;;;;16.23;3.53;;;18.20;88.40;;;;;;5048069;28;20180;-69
2022/10/18 08:53:29;;;;;;;6.60;2.00;;;18.20;88.40;;;;;;5041358;28;20179;-69
2022/10/18 08:56:13;;;;;;;6.47;2.10;;;18.20;88.40;;;;;;5051327;28;20686;-69
2022/10/18 08:58:43;;;;;;;9.33;2.40;;;18.20;88.50;;;;;;5052053;28;20179;-67
2022/10/18 09:01:31;;;;;;;7.40;2.40;;;18.20;88.60;;;;;;5051804;28;20201;-70
2022/10/18 09:04:31;;;;;;;12.40;2.97;;;18.20;88.70;;;;;;5039608;28;20303;-68
2022/10/18 09:07:37;;;;;;;13.97;3.07;;;18.20;88.70;;;;;;5043325;28;20257;-68
2022/10/18 09:10:38;;;;;;;10.87;2.30;;;18.30;88.80;;;;;;5044096;28;20538;-67
2022/10/18 09:13:21;;;;;;;11.40;2.73;;;18.30;88.80;;;;;;5048230;28;20711;-67
2022/10/18 09:16:13;;;;;;;13.77;3.03;;;18.30;88.90;;;;;;5048356;28;20709;-68
2022/10/18 09:18:46;;;;;;;14.77;2.70;;;18.30;88.90;;;;;;5052225;28;20179;-68
2022/10/18 09:21:57;;;;;;;14.13;3.23;;;18.30;89.00;;;;;;5049017;28;20208;-68
2022/10/18 09:24:39;;;;;;;9.27;2.50;;;18.30;89.10;;;;;;5049320;28;20591;-68
2022/10/18 09:27:18;;;;;;;10.57;2.90;;;18.30;89.20;;;;;;5051860;28;20178;-68
2022/10/18 09:30:10;;;;;;;8.17;2.47;;;18.30;89.30;;;;;;5043215;28;20197;-68
2022/10/18 09:33:16;;;;;;;13.23;2.87;;;18.30;89.30;;;;;;5045462;28;20639;-68
2022/10/18 09:35:48;;;;;;;8.93;2.33;;;18.30;89.40;;;;;;5050667;28;20293;-68
2022/10/18 09:38:20;;;;;;;15.07;3.13;;;18.30;89.50;;;;;;5049436;28;20658;-68
2022/10/18 09:41:16;;;;;;;10.40;3.13;;;18.20;89.50;;;;;;5051603;28;20270;-69
2022/10/18 09:44:13;;;;;;;9.23;2.60;;;18.30;89.50;;;;;;5044260;28;20269;-68
2022/10/18 09:46:48;;;;;;;18.50;2.93;;;18.30;89.50;;;;;;5053563;28;20258;-69
2022/10/18 09:49:32;;;;;;;11.50;2.80;;;18.30;89.60;;;;;;5040940;28;20241;-69
2022/10/18 09:52:03;;;;;;;14.03;2.87;;;18.20;89.60;;;;;;5053859;28;20176;-68
2022/10/18 09:55:02;;;;;;;14.63;2.90;;;18.30;89.60;;;;;;5055833;28;20670;-68
2022/10/18 09:58:02;;;;;;;13.93;2.97;;;18.30;89.70;;;;;;5053869;28;20757;-68
2022/10/18 10:00:45;;;;;;;8.70;2.53;;;18.30;89.70;;;;;;5050213;28;20195;-68
2022/10/18 10:03:16;;;;;;;16.73;3.43;;;18.30;89.80;;;;;;5055715;28;20175;-68
2022/10/18 10:05:45;;;;;;;16.80;3.37;;;18.30;89.80;;;;;;5055198;28;20215;-68
2022/10/18 10:08:12;;;;;;;14.93;3.50;;;18.30;89.90;;;;;;5051611;28;20327;-69
2022/10/18 10:10:46;;;;;;;16.07;3.37;;;18.30;89.90;;;;;;5054414;28;20584;-68
2022/10/18 10:13:21;;;;;;;17.40;3.10;;;18.30;89.90;;;;;;5052121;28;20172;-69
2022/10/18 10:16:01;;;;;;;16.63;3.13;;;18.30;90.00;;;;;;5051505;28;20190;-69
2022/10/18 10:18:35;;;;;;;12.70;2.80;;;18.30;90.00;;;;;;5054792;28;20191;-69
2022/10/18 10:21:15;;;;;;;12.83;2.93;;;18.30;90.00;;;;;;5054240;28;20190;-69
2022/10/18 10:23:55;;;;;;;17.63;3.93;;;18.30;90.20;;;;;;5054130;28;20195;-68
2022/10/18 10:26:32;;;;;;;11.27;3.00;;;18.30;90.20;;;;;;5054965;28;20175;-70
2022/10/18 10:29:00;;;;;;;14.07;3.33;;;18.30;90.20;;;;;;5051206;28;20183;-70
2022/10/18 10:31:32;;;;;;;15.17;2.80;;;18.30;90.20;;;;;;5053866;28;20199;-69
2022/10/18 10:34:12;;;;;;;14.53;2.97;;;18.30;90.20;;;;;;5055142;28;20180;-69
2022/10/18 10:36:52;;;;;;;15.03;3.10;;;18.30;90.20;;;;;;5054381;28;20302;-71
2022/10/18 10:39:21;;;;;;;13.60;3.17;;;18.30;90.30;;;;;;5052124;28;20596;-69
2022/10/18 10:41:50;;;;;;;12.83;3.03;;;18.30;90.30;;;;;;5054960;28;20179;-71
2022/10/18 10:44:27;;;;;;;14.30;3.10;;;18.30;90.30;;;;;;5054630;28;20218;-69
2022/10/18 10:46:55;;;;;;;11.93;3.37;;;18.30;90.30;;;;;;5053624;28;20688;-71
2022/10/18 10:49:45;;;;;;;12.70;3.03;;;18.30;90.30;;;;;;5057853;28;20182;-70
2022/10/18 10:52:19;;;;;;;21.57;3.70;;;18.30;90.40;;;;;;5050294;28;20317;-71
2022/10/18 10:54:47;;;;;;;9.77;2.63;;;18.30;90.50;;;;;;5045218;28;20180;-70
2022/10/18 10:57:15;;;;;;;11.97;2.80;;;18.30;90.50;;;;;;5054312;28;20222;-70
2022/10/18 10:59:54;;;;;;;12.23;2.50;;;18.30;90.50;;;;;;5051158;28;20190;-71
2022/10/18 11:02:31;;;;;;;11.50;3.37;;;18.30;90.50;;;;;;5043290;28;20190;-70
2022/10/18 11:05:24;;;;;;;10.80;2.73;;;18.30;90.40;;;;;;5054566;28;20222;-70
2022/10/18 11:07:57;;;;;;;19.80;3.47;;;18.30;90.40;;;;;;5045539;28;20180;-71
2022/10/18 11:10:30;;;;;;;13.93;3.00;;;18.30;90.50;;;;;;5053069;28;20180;-69
2022/10/18 11:13:17;;;;;;;14.77;2.70;;;18.30;90.50;;;;;;5054349;28;20236;-71
2022/10/18 11:15:56;;;;;;;13.93;3.07;;;18.30;90.50;;;;;;5039310;28;20215;-70
2022/10/18 11:18:39;;;;;;;16.60;3.30;;;18.30;90.50;;;;;;5053115;28;20652;-70
2022/10/18 11:21:16;;;;;;;12.77;3.23;;;18.30;90.60;;;;;;5053153;28;20187;-71
2022/10/18 11:23:44;;;;;;;14.57;3.17;;;18.30;90.60;;;;;;5053411;28;20194;-70
2022/10/18 11:26:12;;;;;;;13.77;2.93;;;18.30;90.50;;;;;;5054127;28;20191;-71
2022/10/18 11:29:05;;;;;;;13.77;2.93;;;18.30;90.50;;;;;;5053486;28;20238;-70
2022/10/18 11:31:36;;;;;;;12.73;2.30;;;18.30;90.40;;;;;;5047572;28;20194;-69
2022/10/18 11:34:30;;;;;;;17.87;3.33;;;18.30;90.30;;;;;;5053107;28;20532;-68
2022/10/18 11:37:11;;;;;;;10.10;2.97;;;18.20;90.30;;;;;;5053284;28;20556;-69
2022/10/18 11:40:14;;;;;;;12.93;3.13;;;18.20;90.20;;;;;;5041331;28;20229;-69
2022/10/18 11:43:06;;;;;;;17.23;3.00;;;18.10;90.30;;;;;;5051837;28;20249;-69
2022/10/18 11:45:56;;;;;;;12.10;3.10;;;18.10;90.30;;;;;;5054243;28;21062;-68
2022/10/18 11:48:36;;;;;;;12.37;3.20;;;18.00;90.40;;;;;;5053882;28;20199;-68
2022/10/18 11:51:24;;;;;;;13.93;3.27;;;18.00;90.40;;;;;;5044031;28;20179;-70
2022/10/18 11:54:20;;;;;;;8.33;2.77;;;18.00;90.40;;;;;;5043994;28;20187;-69
2022/10/18 11:57:00;;;;;;;13.37;2.70;;;18.00;90.30;;;;;;5053461;28;20178;-68
2022/10/18 11:59:45;;;;;;;8.97;2.47;;;18.00;90.30;;;;;;5039393;28;20171;-69
2022/10/18 12:02:51;;;;;;;12.00;2.63;;;18.10;90.20;;;;;;5053153;28;20186;-69
2022/10/18 12:05:19;;;;;;;9.93;2.60;;;18.10;90.00;;;;;;5036982;28;20769;-71
2022/10/18 12:08:01;;;;;;;11.97;2.93;;;18.10;89.80;;;;;;5052737;28;20191;-68
2022/10/18 12:10:31;;;;;;;12.60;2.70;;;18.00;89.70;;;;;;5045778;28;20173;-70
2022/10/18 12:13:04;;;;;;;12.73;2.93;;;18.00;89.70;;;;;;5051781;28;20189;-69
2022/10/18 12:15:36;;;;;;;8.13;2.67;;;18.10;89.70;;;;;;5052919;28;20568;-68
2022/10/18 12:18:10;;;;;;;15.63;2.87;;;18.00;89.70;;;;;;5053192;28;20229;-69
2022/10/18 12:20:53;;;;;;;14.57;3.20;;;18.00;89.70;;;;;;5052267;28;20179;-70
2022/10/18 12:23:38;;;;;;;19.13;3.30;;;18.00;89.80;;;;;;5052162;28;20195;-69
2022/10/18 12:26:07;;;;;;;10.27;3.27;;;18.00;89.70;;;;;;5052989;28;20195;-69
2022/10/18 12:28:56;;;;;;;14.63;3.37;;;18.00;89.70;;;;;;5051886;28;20202;-69
2022/10/18 12:32:01;;;;;;;10.30;2.80;;;18.00;89.60;;;;;;5052852;28;20627;-70
2022/10/18 12:34:42;;;;;;;13.07;3.00;;;18.00;89.60;;;;;;5030572;28;20245;-70
2022/10/18 12:37:46;;;;;;;11.43;2.87;;;18.00;89.50;;;;;;5039836;28;20198;-69
2022/10/18 12:40:29;;;;;;;9.07;2.63;;;18.00;89.60;;;;;;5052127;28;20179;-69
2022/10/18 12:42:57;;;;;;;17.07;2.97;;;18.00;89.70;;;;;;5052044;28;20221;-68
2022/10/18 12:45:33;;;;;;;16.23;2.87;;;18.00;89.60;;;;;;5038878;28;20742;-69
2022/10/18 12:48:04;;;;;;;13.83;3.00;;;18.10;89.60;;;;;;5052810;28;20544;-70
2022/10/18 12:50:37;;;;;;;14.50;3.67;;;18.00;89.50;;;;;;5034522;28;20890;-70
2022/10/18 12:53:24;;;;;;;17.03;3.10;;;18.00;89.50;;;;;;5049213;28;20613;-68
2022/10/18 12:55:52;;;;;;;16.67;3.40;;;18.00;89.50;;;;;;5063933;28;20186;-69
2022/10/18 12:58:22;;;;;;;17.97;3.07;;;18.00;89.50;;;;;;5054607;28;20187;-69
2022/10/18 13:00:50;;;;;;;17.70;3.67;;;18.00;89.50;;;;;;5045982;28;20180;-69
2022/10/18 13:03:18;;;;;;;10.57;3.23;;;17.90;89.50;;;;;;5048682;28;20183;-70
2022/10/18 13:05:51;;;;;;;18.30;3.57;;;18.00;89.60;;;;;;5052527;28;20631;-68
2022/10/18 13:08:40;;;;;;;10.83;3.30;;;18.00;89.60;;;;;;5051604;28;20172;-68
2022/10/18 13:11:10;;;;;;;15.63;3.43;;;17.90;89.70;;;;;;5048375;28;20212;-68
2022/10/18 13:14:24;;;;;;;18.53;3.30;;;17.90;89.70;;;;;;5051957;28;20178;-68
2022/10/18 13:16:54;;;;;;;16.97;3.23;;;17.90;89.70;;;;;;5052316;28;20217;-69